sensor_id;sensor_type;location;lat;lon;timestamp;temperature;humidity
23495;DHT22;26107;50.832;2.950;2022-09-24T00:14:57;13.50;99.90
23495;DHT22;26107;50.832;2.950;2022-09-24T00:29:58;13.60;99.90
23495;DHT22;26107;50.832;2.950;2022-09-24T00:44:58;13.70;99.90
23495;DHT22;26107;50.832;2.950;2022-09-24T01:00:00;13.50;99.90
23495;DHT22;26107;50.832;2.950;2022-09-24T01:30:05;13.70;99.90
23495;DHT22;26107;50.832;2.950;2022-09-24T01:45:06;13.70;99.90
23495;DHT22;26107;50.832;2.950;2022-09-24T02:00:09;13.70;99.90
23495;DHT22;26107;50.832;2.950;2022-09-24T02:15:12;13.70;99.90
23495;DHT22;26107;50.832;2.950;2022-09-24T02:30:13;13.80;99.90
23495;DHT22;26107;50.832;2.950;2022-09-24T02:45:14;13.80;99.90
23495;DHT22;26107;50.832;2.950;2022-09-24T03:00:14;13.60;99.90
23495;DHT22;26107;50.832;2.950;2022-09-24T03:15:15;13.90;99.90
23495;DHT22;26107;50.832;2.950;2022-09-24T03:30:15;13.90;99.90
23495;DHT22;26107;50.832;2.950;2022-09-24T03:45:35;13.90;99.90
23495;DHT22;26107;50.832;2.950;2022-09-24T04:00:35;13.80;99.90
23495;DHT22;26107;50.832;2.950;2022-09-24T04:15:36;13.60;99.90
23495;DHT22;26107;50.832;2.950;2022-09-24T04:30:36;13.40;99.90
23495;DHT22;26107;50.832;2.950;2022-09-24T04:45:37;13.80;99.90
23495;DHT22;26107;50.832;2.950;2022-09-24T05:00:38;13.90;99.90
23495;DHT22;26107;50.832;2.950;2022-09-24T05:15:38;13.90;99.90
23495;DHT22;26107;50.832;2.950;2022-09-24T05:30:39;13.60;99.90
23495;DHT22;26107;50.832;2.950;2022-09-24T05:45:39;13.60;99.90
23495;DHT22;26107;50.832;2.950;2022-09-24T06:00:41;13.50;99.90
23495;DHT22;26107;50.832;2.950;2022-09-24T06:15:42;13.50;99.90
23495;DHT22;26107;50.832;2.950;2022-09-24T06:30:42;13.70;99.90
23495;DHT22;26107;50.832;2.950;2022-09-24T06:45:43;13.90;99.90
23495;DHT22;26107;50.832;2.950;2022-09-24T07:00:49;13.90;99.90
23495;DHT22;26107;50.832;2.950;2022-09-24T07:15:50;14.30;99.90
23495;DHT22;26107;50.832;2.950;2022-09-24T07:30:54;14.40;99.90
23495;DHT22;26107;50.832;2.950;2022-09-24T07:45:55;14.30;99.90
23495;DHT22;26107;50.832;2.950;2022-09-24T08:00:57;14.50;99.90
23495;DHT22;26107;50.832;2.950;2022-09-24T08:15:58;14.70;99.90
23495;DHT22;26107;50.832;2.950;2022-09-24T08:31:00;14.80;99.90
23495;DHT22;26107;50.832;2.950;2022-09-24T08:46:01;15.20;99.90
23495;DHT22;26107;50.832;2.950;2022-09-24T09:16:24;16.00;99.90
23495;DHT22;26107;50.832;2.950;2022-09-24T09:31:41;16.00;99.90
23495;DHT22;26107;50.832;2.950;2022-09-24T09:47:11;15.90;99.90
23495;DHT22;26107;50.832;2.950;2022-09-24T10:02:09;16.10;99.90
23495;DHT22;26107;50.832;2.950;2022-09-24T10:17:14;16.70;99.90
23495;DHT22;26107;50.832;2.950;2022-09-24T10:32:16;16.70;99.90
23495;DHT22;26107;50.832;2.950;2022-09-24T10:47:22;17.10;99.90
23495;DHT22;26107;50.832;2.950;2022-09-24T11:17:30;17.30;99.90
23495;DHT22;26107;50.832;2.950;2022-09-24T12:03:17;17.90;99.90
23495;DHT22;26107;50.832;2.950;2022-09-24T12:18:26;18.90;99.90
23495;DHT22;26107;50.832;2.950;2022-09-24T12:33:30;19.00;99.90
23495;DHT22;26107;50.832;2.950;2022-09-24T12:48:36;18.40;99.90
23495;DHT22;26107;50.832;2.950;2022-09-24T13:03:37;19.10;99.90
23495;DHT22;26107;50.832;2.950;2022-09-24T13:18:40;19.00;99.90
23495;DHT22;26107;50.832;2.950;2022-09-24T13:33:44;19.10;99.90
23495;DHT22;26107;50.832;2.950;2022-09-24T13:49:00;19.10;99.90
23495;DHT22;26107;50.832;2.950;2022-09-24T14:04:17;19.00;99.90
23495;DHT22;26107;50.832;2.950;2022-09-24T14:19:18;19.10;99.90
23495;DHT22;26107;50.832;2.950;2022-09-24T14:49:26;20.20;99.90
23495;DHT22;26107;50.832;2.950;2022-09-24T15:04:28;20.80;99.90
23495;DHT22;26107;50.832;2.950;2022-09-24T15:19:28;21.70;99.90
23495;DHT22;26107;50.832;2.950;2022-09-24T15:34:30;20.60;99.90
23495;DHT22;26107;50.832;2.950;2022-09-24T15:49:30;21.20;99.90
23495;DHT22;26107;50.832;2.950;2022-09-24T16:04:31;22.20;99.90
23495;DHT22;26107;50.832;2.950;2022-09-24T16:19:31;21.30;99.90
23495;DHT22;26107;50.832;2.950;2022-09-24T16:34:32;20.40;99.90
23495;DHT22;26107;50.832;2.950;2022-09-24T16:49:33;20.10;99.90
23495;DHT22;26107;50.832;2.950;2022-09-24T17:04:34;19.60;99.90
23495;DHT22;26107;50.832;2.950;2022-09-24T17:19:34;19.30;99.90
23495;DHT22;26107;50.832;2.950;2022-09-24T17:34:35;18.30;99.90
23495;DHT22;26107;50.832;2.950;2022-09-24T17:49:35;17.80;99.90
23495;DHT22;26107;50.832;2.950;2022-09-24T18:04:36;17.30;99.90
23495;DHT22;26107;50.832;2.950;2022-09-24T18:19:37;17.10;99.90
23495;DHT22;26107;50.832;2.950;2022-09-24T18:34:37;16.90;99.90
23495;DHT22;26107;50.832;2.950;2022-09-24T18:49:38;16.60;99.90
23495;DHT22;26107;50.832;2.950;2022-09-24T19:04:39;16.40;99.90
23495;DHT22;26107;50.832;2.950;2022-09-24T19:19:39;16.20;99.90
23495;DHT22;26107;50.832;2.950;2022-09-24T19:34:40;16.20;99.90
23495;DHT22;26107;50.832;2.950;2022-09-24T19:49:40;16.00;99.90
23495;DHT22;26107;50.832;2.950;2022-09-24T20:04:41;15.70;99.90
23495;DHT22;26107;50.832;2.950;2022-09-24T20:19:41;15.80;99.90
23495;DHT22;26107;50.832;2.950;2022-09-24T20:34:42;15.30;99.90
23495;DHT22;26107;50.832;2.950;2022-09-24T20:49:42;15.30;99.90
23495;DHT22;26107;50.832;2.950;2022-09-24T21:04:43;15.20;99.90
23495;DHT22;26107;50.832;2.950;2022-09-24T21:19:43;15.10;99.90
23495;DHT22;26107;50.832;2.950;2022-09-24T21:34:44;14.80;99.90
23495;DHT22;26107;50.832;2.950;2022-09-24T21:49:44;14.70;99.90
23495;DHT22;26107;50.832;2.950;2022-09-24T22:04:47;13.20;99.90
23495;DHT22;26107;50.832;2.950;2022-09-24T22:19:47;13.40;99.90
23495;DHT22;26107;50.832;2.950;2022-09-24T22:34:48;12.80;99.90
23495;DHT22;26107;50.832;2.950;2022-09-24T22:50:07;12.60;99.90
23495;DHT22;26107;50.832;2.950;2022-09-24T23:05:08;12.70;99.90
23495;DHT22;26107;50.832;2.950;2022-09-24T23:20:09;12.60;99.90
23495;DHT22;26107;50.832;2.950;2022-09-24T23:35:09;12.40;99.90
23495;DHT22;26107;50.832;2.950;2022-09-24T23:50:10;12.60;99.90
